Time;durP1;ratioP1;P1;durP2;ratioP2;P2;SDS_P1;SDS_P2;PMS_P1;PMS_P2;Temp;Humidity;BMP_temperature;BMP_pressure;BME280_temperature;BME280_humidity;BME280_pressure;Samples;Min_cycle;Max_cycle;Signal;HPM_P1;HPM_P2
2022/08/11 00:02:27;;;;;;;9.60;9.20;;;23.00;10.30;;;;;;5051766;28;20440;-58
2022/08/11 00:04:54;;;;;;;9.73;9.33;;;23.00;10.40;;;;;;5051840;28;20908;-58
2022/08/11 00:07:21;;;;;;;10.10;9.57;;;23.00;10.00;;;;;;5053178;28;20420;-58
2022/08/11 00:09:47;;;;;;;9.23;8.93;;;23.10;9.80;;;;;;5053531;28;20425;-58
2022/08/11 00:12:15;;;;;;;9.83;9.43;;;23.20;9.30;;;;;;5053451;28;20502;-58
2022/08/11 00:14:42;;;;;;;9.70;9.30;;;23.30;9.60;;;;;;5053579;28;20580;-58
2022/08/11 00:17:11;;;;;;;9.70;9.30;;;23.20;10.10;;;;;;5072988;28;20433;-58
2022/08/11 00:19:41;;;;;;;9.80;9.30;;;23.00;10.40;;;;;;5057217;28;20469;-58
2022/08/11 00:22:09;;;;;;;9.43;9.03;;;22.80;10.60;;;;;;5057122;28;20455;-57
2022/08/11 00:24:37;;;;;;;9.83;9.43;;;22.70;10.50;;;;;;5057306;28;20840;-57
2022/08/11 00:27:04;;;;;;;9.70;9.20;;;22.60;10.70;;;;;;5057231;28;20413;-58
2022/08/11 00:29:30;;;;;;;10.90;10.40;;;22.60;10.90;;;;;;5057221;28;20770;-58
2022/08/11 00:32:00;;;;;;;9.80;9.23;;;22.50;11.00;;;;;;5056911;28;20459;-58
2022/08/11 00:34:28;;;;;;;9.70;9.20;;;22.50;11.20;;;;;;5057095;28;20417;-58
2022/08/11 00:37:02;;;;;;;9.43;9.03;;;22.40;11.20;;;;;;5057008;28;20811;-57
2022/08/11 00:39:31;;;;;;;10.20;9.70;;;22.40;11.40;;;;;;5057024;28;20468;-58
2022/08/11 00:42:55;;;;;;;9.83;9.43;;;22.50;11.30;;;;;;5056721;28;20413;-58
2022/08/11 00:45:41;;;;;;;10.00;9.23;;;22.60;10.80;;;;;;4957583;28;20477;-58
2022/08/11 00:48:27;;;;;;;9.90;9.40;;;22.80;10.60;;;;;;5056789;28;20437;-58
2022/08/11 00:51:32;;;;;;;10.70;10.03;;;22.90;10.60;;;;;;5056607;28;20414;-58
2022/08/11 00:54:17;;;;;;;10.10;9.70;;;23.00;10.30;;;;;;5056962;28;20790;-58
2022/08/11 00:57:08;;;;;;;9.70;9.17;;;22.90;10.60;;;;;;5057041;28;20464;-58
2022/08/11 00:59:53;;;;;;;9.63;9.23;;;22.70;11.00;;;;;;5073740;28;21043;-58
2022/08/11 01:02:40;;;;;;;10.10;9.70;;;22.60;11.10;;;;;;5056995;28;21104;-57
2022/08/11 01:05:06;;;;;;;9.87;9.37;;;22.40;11.30;;;;;;5056612;28;20409;-58
2022/08/11 01:07:38;;;;;;;10.10;9.50;;;22.30;11.40;;;;;;5056600;28;20467;-57
2022/08/11 01:10:08;;;;;;;11.37;10.20;;;22.20;11.50;;;;;;5056260;28;20490;-57
2022/08/11 01:13:15;;;;;;;10.10;9.60;;;22.30;11.60;;;;;;5056436;28;20425;-57
2022/08/11 01:15:53;;;;;;;10.23;9.63;;;22.40;11.40;;;;;;4969116;28;20448;-61
2022/08/11 01:18:43;;;;;;;10.27;9.60;;;22.50;11.00;;;;;;5056048;28;20472;-60
2022/08/11 01:21:24;;;;;;;9.23;8.93;;;22.60;11.00;;;;;;5056032;28;20425;-58
2022/08/11 01:24:09;;;;;;;10.23;9.60;;;22.70;10.70;;;;;;5056067;28;20929;-58
2022/08/11 01:27:03;;;;;;;10.13;9.63;;;22.80;10.60;;;;;;5056200;28;20413;-57
2022/08/11 01:30:06;;;;;;;9.70;9.30;;;22.90;10.60;;;;;;5056009;28;20520;-58
2022/08/11 01:32:59;;;;;;;10.10;9.47;;;22.90;10.40;;;;;;5056042;28;20424;-58
2022/08/11 01:35:46;;;;;;;9.50;9.10;;;23.00;10.50;;;;;;5055879;28;20439;-58
2022/08/11 01:38:30;;;;;;;9.97;9.53;;;22.80;10.60;;;;;;5055846;28;20460;-58
2022/08/11 01:41:14;;;;;;;9.93;9.53;;;22.60;10.90;;;;;;5055657;28;20424;-58
2022/08/11 01:44:37;;;;;;;9.80;9.40;;;22.50;11.20;;;;;;5055760;28;20420;-57
2022/08/11 01:47:49;;;;;;;10.13;9.50;;;22.50;11.30;;;;;;5055816;28;20444;-57
2022/08/11 01:50:06;;;;;;;10.73;10.00;;;22.40;11.30;;;;;;5073076;28;20505;-58
2022/08/11 01:53:29;;;;;;;11.13;10.33;;;22.50;11.40;;;;;;5055689;28;20420;-58
2022/08/11 01:56:32;;;;;;;9.60;9.20;;;22.30;11.60;;;;;;4975566;28;20421;-58
2022/08/11 01:59:12;;;;;;;10.07;9.57;;;22.20;11.80;;;;;;4975457;28;20460;-58
2022/08/11 02:02:16;;;;;;;9.63;9.23;;;22.10;11.90;;;;;;5050712;28;20424;-58
2022/08/11 02:05:09;;;;;;;9.87;9.47;;;22.10;12.00;;;;;;5017432;28;20421;-58
2022/08/11 02:07:59;;;;;;;10.40;9.90;;;22.00;12.20;;;;;;5055373;28;20936;-58
2022/08/11 02:13:51;;;;;;;10.10;9.70;;;22.10;12.40;;;;;;5073286;28;20416;-58
2022/08/11 02:16:52;;;;;;;10.83;10.10;;;22.20;12.10;;;;;;5055252;28;20859;-58
2022/08/11 02:25:40;;;;;;;10.83;10.13;;;22.50;11.90;;;;;;5073181;28;20450;-58
2022/08/11 02:28:18;;;;;;;10.30;9.90;;;22.50;11.90;;;;;;5054978;28;20517;-58
2022/08/11 02:33:53;;;;;;;10.20;9.70;;;22.50;11.60;;;;;;5072761;28;20420;-61
2022/08/11 02:36:35;;;;;;;10.50;10.10;;;22.50;11.60;;;;;;5054734;28;20417;-60
2022/08/11 02:39:12;;;;;;;10.33;9.93;;;22.60;11.70;;;;;;5054112;28;20988;-60
2022/08/11 02:44:51;;;;;;;10.20;9.70;;;22.60;11.60;;;;;;5072559;28;20555;-60
2022/08/11 02:51:22;;;;;;;9.83;9.43;;;22.60;11.70;;;;;;5067337;28;20432;-60
2022/08/11 02:54:10;;;;;;;10.67;10.13;;;22.60;11.70;;;;;;5054488;28;20417;-60
2022/08/11 02:57:00;;;;;;;10.70;10.30;;;22.60;11.60;;;;;;5054497;28;20413;-60
2022/08/11 03:02:31;;;;;;;10.53;9.83;;;22.60;11.90;;;;;;5072263;28;20462;-61
2022/08/11 03:05:13;;;;;;;10.30;9.90;;;22.50;12.00;;;;;;5054325;28;20445;-61
2022/08/11 03:07:38;;;;;;;10.70;10.30;;;22.50;12.10;;;;;;5054443;28;20428;-61
2022/08/11 03:10:20;;;;;;;11.00;10.43;;;22.50;12.20;;;;;;5053942;28;20426;-60
2022/08/11 03:16:44;;;;;;;9.93;9.40;;;22.50;12.40;;;;;;5072144;28;20412;-59
2022/08/11 03:19:00;;;;;;;10.63;10.13;;;22.40;12.30;;;;;;5071726;28;20477;-59
2022/08/11 03:21:38;;;;;;;10.30;9.80;;;22.40;12.30;;;;;;5053894;28;20416;-58
2022/08/11 03:24:17;;;;;;;10.93;10.50;;;22.40;12.30;;;;;;5054127;28;20421;-59
2022/08/11 03:27:00;;;;;;;10.33;9.83;;;22.40;12.30;;;;;;5054006;28;20409;-59
2022/08/11 03:30:00;;;;;;;10.67;10.27;;;22.30;12.40;;;;;;5054034;28;20409;-59
2022/08/11 03:32:31;;;;;;;10.70;10.10;;;22.30;12.50;;;;;;5054056;28;20793;-58
2022/08/11 03:35:00;;;;;;;10.80;10.30;;;22.20;12.60;;;;;;5053856;28;20960;-58
2022/08/11 03:37:50;;;;;;;10.83;10.30;;;22.20;12.70;;;;;;5053903;28;20455;-58
2022/08/11 03:43:54;;;;;;;10.87;10.37;;;22.20;12.80;;;;;;5071965;28;20822;-58
2022/08/11 03:46:44;;;;;;;10.93;10.43;;;22.10;13.00;;;;;;5053837;28;20755;-58
2022/08/11 03:49:46;;;;;;;11.00;10.43;;;22.10;13.30;;;;;;5053874;28;20417;-60
2022/08/11 03:52:29;;;;;;;10.13;9.73;;;21.50;14.10;;;;;;5057097;28;20423;-61
2022/08/11 03:55:20;;;;;;;11.60;11.10;;;21.20;14.70;;;;;;5057832;28;20445;-59
2022/08/11 03:58:12;;;;;;;11.50;11.00;;;20.80;15.40;;;;;;5057846;28;20771;-60
2022/08/11 04:01:07;;;;;;;10.83;10.37;;;20.80;15.50;;;;;;5057547;28;20487;-60
2022/08/11 04:04:02;;;;;;;11.53;10.93;;;21.00;15.10;;;;;;5057685;28;20417;-61
2022/08/11 04:06:47;;;;;;;10.97;10.47;;;21.30;14.80;;;;;;5057672;28;20441;-61
2022/08/11 04:09:31;;;;;;;11.20;10.70;;;21.50;14.40;;;;;;5057795;28;20417;-60
2022/08/11 04:12:29;;;;;;;11.37;10.87;;;21.60;14.20;;;;;;5057257;28;20798;-60
2022/08/11 04:18:19;;;;;;;11.40;10.80;;;21.80;14.30;;;;;;5075812;28;20557;-61
2022/08/11 04:21:16;;;;;;;11.63;11.10;;;21.80;13.90;;;;;;5057373;28;20503;-61
2022/08/11 04:24:21;;;;;;;11.63;11.10;;;21.80;13.90;;;;;;5057786;28;20410;-60
2022/08/11 04:27:21;;;;;;;11.77;11.00;;;21.80;13.70;;;;;;5057344;28;20823;-60
2022/08/11 04:30:16;;;;;;;10.80;10.27;;;21.80;14.00;;;;;;5026568;28;20413;-60
2022/08/11 04:33:33;;;;;;;12.13;11.40;;;21.80;14.20;;;;;;5057204;28;20474;-61
2022/08/11 04:37:31;;;;;;;10.80;10.40;;;21.80;14.30;;;;;;5057092;28;20498;-61
2022/08/11 04:39:55;;;;;;;11.30;10.67;;;21.80;14.30;;;;;;5074965;28;20980;-61
2022/08/11 04:45:36;;;;;;;11.50;11.10;;;21.80;14.30;;;;;;5075022;28;20773;-61
2022/08/11 05:03:29;;;;;;;11.43;11.03;;;21.80;14.30;;;;;;5074170;28;20940;-64
2022/08/11 05:06:44;;;;;;;12.47;11.77;;;21.80;14.30;;;;;;5056527;28;20410;-60
2022/08/11 05:09:37;;;;;;;11.53;11.03;;;21.80;14.30;;;;;;5056475;28;20414;-61
2022/08/11 05:12:09;;;;;;;12.40;11.90;;;21.80;14.30;;;;;;5056186;28;21001;-60
2022/08/11 05:27:09;;;;;;;11.80;11.30;;;21.80;14.30;;;;;;5074378;28;20732;-60
2022/08/11 05:35:36;;;;;;;13.50;12.50;;;21.90;14.70;;;;;;5074172;28;20396;-60
2022/08/11 05:57:31;;;;;;;13.30;12.60;;;21.50;15.50;;;;;;5074173;28;20420;-60
2022/08/11 06:00:09;;;;;;;12.90;12.30;;;21.50;15.90;;;;;;5055596;28;20965;-60
2022/08/11 06:02:43;;;;;;;12.07;11.47;;;21.60;15.30;;;;;;5055783;28;20428;-60
2022/08/11 06:05:10;;;;;;;13.07;12.47;;;21.70;15.20;;;;;;5055837;28;20412;-60
2022/08/11 06:07:37;;;;;;;13.37;12.40;;;21.80;14.80;;;;;;5055554;28;20414;-60
2022/08/11 06:10:03;;;;;;;12.90;12.20;;;21.90;14.70;;;;;;5055003;28;20983;-60
2022/08/11 06:12:31;;;;;;;13.03;12.20;;;22.00;14.50;;;;;;5055177;28;20793;-60
2022/08/11 06:15:01;;;;;;;12.07;11.57;;;22.00;14.50;;;;;;5055294;28;20421;-60
2022/08/11 06:17:32;;;;;;;12.73;11.83;;;22.00;14.50;;;;;;5054886;28;20487;-60
2022/08/11 06:20:11;;;;;;;13.63;12.90;;;22.10;14.50;;;;;;5054784;28;20552;-60
2022/08/11 06:22:42;;;;;;;12.90;12.40;;;22.10;14.50;;;;;;5054987;28;20896;-60
2022/08/11 06:25:10;;;;;;;13.00;12.40;;;22.10;14.50;;;;;;5055075;28;20433;-60
2022/08/11 06:27:37;;;;;;;13.70;12.90;;;21.90;14.40;;;;;;5054891;28;20412;-60
2022/08/11 06:30:12;;;;;;;13.57;12.70;;;22.00;14.50;;;;;;5054549;28;20421;-60
2022/08/11 06:32:40;;;;;;;12.03;11.33;;;22.00;14.50;;;;;;5054834;28;20417;-63
2022/08/11 06:35:28;;;;;;;13.13;12.53;;;22.10;14.50;;;;;;5054827;28;20846;-62
2022/08/11 06:38:31;;;;;;;13.20;12.60;;;22.00;14.50;;;;;;5054549;28;20417;-64
2022/08/11 06:41:30;;;;;;;12.60;12.00;;;22.10;14.50;;;;;;5054336;28;20517;-62
2022/08/11 06:44:04;;;;;;;13.57;12.57;;;22.10;14.50;;;;;;5032592;28;20449;-63
2022/08/11 06:46:35;;;;;;;13.03;12.00;;;22.20;14.60;;;;;;5054694;28;20512;-63
2022/08/11 06:49:02;;;;;;;13.33;12.73;;;22.30;14.60;;;;;;5054305;28;20430;-61
2022/08/11 06:51:29;;;;;;;12.97;12.37;;;22.30;14.50;;;;;;5054390;28;20471;-61
2022/08/11 06:54:00;;;;;;;12.43;11.93;;;22.40;14.50;;;;;;5054417;28;20528;-62
2022/08/11 07:02:25;;;;;;;12.63;12.00;;;22.50;14.00;;;;;;5069893;28;20509;-61
2022/08/11 07:04:59;;;;;;;12.90;12.00;;;22.50;14.30;;;;;;5053209;28;20994;-61
2022/08/11 07:16:27;;;;;;;13.00;12.40;;;22.60;14.40;;;;;;5072363;28;20938;-61
2022/08/11 07:30:16;;;;;;;13.63;12.87;;;22.80;13.90;;;;;;5071899;28;20417;-61
2022/08/11 07:32:56;;;;;;;13.63;13.03;;;22.90;13.90;;;;;;5053405;28;20439;-61
2022/08/11 07:35:31;;;;;;;13.57;12.40;;;22.90;13.60;;;;;;5053770;28;20409;-61
2022/08/11 07:38:10;;;;;;;14.03;12.90;;;23.00;13.80;;;;;;5053721;28;20413;-61
2022/08/11 07:40:37;;;;;;;13.57;12.87;;;23.00;13.60;;;;;;5050237;28;20442;-62
2022/08/11 07:43:05;;;;;;;14.43;13.70;;;23.10;13.60;;;;;;5072050;28;20420;-63
2022/08/11 07:53:45;;;;;;;12.40;11.90;;;23.30;13.40;;;;;;5071667;28;20808;-62
2022/08/11 07:56:15;;;;;;;14.53;13.37;;;23.40;13.20;;;;;;5053153;28;20788;-62
2022/08/11 08:18:02;;;;;;;13.83;12.73;;;24.20;11.50;;;;;;5071106;28;20950;-62
2022/08/11 08:20:43;;;;;;;12.40;11.90;;;24.30;11.60;;;;;;5053117;28;20764;-61
2022/08/11 08:23:09;;;;;;;13.63;12.83;;;24.40;11.10;;;;;;5053450;28;20409;-64
2022/08/11 08:25:39;;;;;;;13.10;12.30;;;24.40;11.20;;;;;;5052857;28;20413;-61
2022/08/11 08:28:25;;;;;;;14.80;13.37;;;24.50;10.80;;;;;;5053295;28;20421;-61
2022/08/11 08:30:51;;;;;;;12.50;12.00;;;24.60;10.40;;;;;;5052438;28;20422;-62
2022/08/11 08:33:22;;;;;;;12.70;11.90;;;24.70;10.00;;;;;;5053043;28;20452;-61
2022/08/11 08:36:10;;;;;;;12.57;12.03;;;24.80;9.90;;;;;;5053051;28;20952;-61
2022/08/11 08:38:56;;;;;;;12.30;11.70;;;24.90;9.10;;;;;;5054974;28;20536;-62
2022/08/11 08:41:26;;;;;;;12.90;12.13;;;25.00;9.50;;;;;;5056119;28;20449;-62
2022/08/11 08:43:57;;;;;;;11.93;11.10;;;25.00;9.10;;;;;;5056632;28;20761;-62
2022/08/11 08:46:32;;;;;;;12.73;11.90;;;25.00;9.50;;;;;;5056528;28;20785;-62
2022/08/11 08:49:02;;;;;;;11.60;11.20;;;25.10;8.70;;;;;;5056410;28;20420;-61
2022/08/11 08:51:34;;;;;;;11.70;11.30;;;25.20;8.50;;;;;;5056196;28;20424;-61
2022/08/11 08:54:07;;;;;;;11.60;11.20;;;25.30;8.50;;;;;;5056035;28;20813;-62
2022/08/11 08:56:36;;;;;;;12.90;12.10;;;25.30;8.40;;;;;;5056484;28;20422;-62
2022/08/11 08:59:03;;;;;;;12.97;12.47;;;25.40;8.10;;;;;;5056187;28;20488;-62
2022/08/11 09:01:41;;;;;;;13.20;12.60;;;25.40;8.20;;;;;;5056217;28;20421;-62
2022/08/11 09:04:07;;;;;;;13.33;12.60;;;25.50;7.80;;;;;;5056268;28;20429;-62
2022/08/11 09:06:38;;;;;;;12.87;12.27;;;25.60;7.90;;;;;;5056364;28;20406;-62
2022/08/11 09:09:07;;;;;;;13.17;12.67;;;25.60;7.70;;;;;;5055821;28;20498;-62
2022/08/11 09:11:49;;;;;;;13.37;12.77;;;25.70;7.90;;;;;;5072836;28;20413;-62
2022/08/11 09:14:18;;;;;;;12.67;12.17;;;25.70;7.90;;;;;;5062995;28;20467;-62
2022/08/11 09:16:45;;;;;;;12.37;11.83;;;25.70;7.90;;;;;;5055588;28;20432;-63
2022/08/11 09:19:16;;;;;;;12.40;11.73;;;25.80;7.40;;;;;;5056056;28;20548;-63
2022/08/11 09:21:43;;;;;;;12.30;11.70;;;25.80;6.90;;;;;;5055877;28;20410;-62
2022/08/11 09:26:59;;;;;;;12.87;12.20;;;26.00;6.00;;;;;;5074216;28;20412;-61
2022/08/11 09:29:29;;;;;;;11.60;11.20;;;26.10;5.40;;;;;;5089460;28;20944;-60
2022/08/11 09:31:55;;;;;;;12.37;11.87;;;26.30;5.20;;;;;;5055674;28;20426;-63
2022/08/11 09:34:22;;;;;;;12.50;11.70;;;26.30;5.10;;;;;;5055948;28;20948;-62
2022/08/11 09:42:22;;;;;;;12.43;11.90;;;26.80;4.90;;;;;;5073985;28;20428;-60
2022/08/11 09:44:48;;;;;;;12.80;12.20;;;27.00;4.20;;;;;;5055580;28;20409;-62
2022/08/11 09:47:23;;;;;;;12.60;12.10;;;27.20;4.60;;;;;;5055522;28;20409;-61
2022/08/11 09:49:52;;;;;;;12.83;12.33;;;27.30;4.30;;;;;;5055118;28;20428;-60
2022/08/11 09:52:18;;;;;;;12.77;12.17;;;27.50;4.20;;;;;;5055174;28;20410;-64
2022/08/11 09:54:47;;;;;;;12.20;11.70;;;27.60;3.90;;;;;;5055399;28;20413;-60
2022/08/11 09:59:57;;;;;;;12.47;11.97;;;27.90;3.00;;;;;;5073045;28;20480;-62
2022/08/11 10:02:27;;;;;;;11.90;11.40;;;28.00;3.20;;;;;;5055449;28;20496;-62
2022/08/11 10:07:00;;;;;;;11.93;11.20;;;28.10;3.30;;;;;;5055177;28;20666;-62
2022/08/11 10:07:51;;;;;;;11.27;10.77;;;28.20;2.80;;;;;;5073334;28;20923;-62
2022/08/11 10:10:21;;;;;;;11.40;10.80;;;28.30;2.30;;;;;;5055190;28;20418;-61
2022/08/11 10:12:51;;;;;;;12.00;11.20;;;28.40;2.00;;;;;;5055541;28;20422;-62
2022/08/11 10:15:33;;;;;;;12.30;11.70;;;28.40;2.10;;;;;;5055605;28;21051;-63
2022/08/11 10:21:08;;;;;;;11.50;11.00;;;28.40;1.60;;;;;;5073358;28;20459;-62
2022/08/11 10:34:43;;;;;;;13.23;12.00;;;29.10;1.00;;;;;;5072945;28;20554;-63
2022/08/11 10:37:09;;;;;;;12.17;11.67;;;29.00;1.30;;;;;;5054770;28;20460;-61
2022/08/11 10:39:36;;;;;;;12.30;11.80;;;28.90;1.00;;;;;;5054981;28;20461;-62
2022/08/11 10:44:51;;;;;;;12.97;11.87;;;29.00;1.00;;;;;;5072992;28;20428;-59
2022/08/11 10:47:33;;;;;;;13.40;12.80;;;29.00;1.00;;;;;;5054778;28;20413;-59
2022/08/11 11:01:02;;;;;;;12.03;11.53;;;28.80;1.00;;;;;;5071746;28;20425;-62
2022/08/11 11:03:30;;;;;;;11.67;11.27;;;28.90;1.00;;;;;;5054155;28;20413;-61
2022/08/11 11:06:24;;;;;;;12.60;12.10;;;28.90;1.00;;;;;;5072206;28;20437;-62
2022/08/11 11:09:11;;;;;;;12.47;11.47;;;28.80;1.00;;;;;;5054239;28;20409;-61
2022/08/11 11:20:17;;;;;;;11.73;11.33;;;28.80;1.00;;;;;;5071957;28;20993;-61
2022/08/11 11:22:51;;;;;;;11.63;11.13;;;28.70;1.00;;;;;;5038195;28;20536;-61
2022/08/11 11:25:19;;;;;;;11.83;11.13;;;28.70;1.00;;;;;;5054247;28;20413;-62
2022/08/11 11:28:12;;;;;;;11.20;10.80;;;28.80;1.00;;;;;;5050095;28;20423;-61
2022/08/11 11:31:20;;;;;;;11.13;10.63;;;28.70;1.00;;;;;;5053379;28;20424;-62
2022/08/11 11:33:51;;;;;;;11.30;10.90;;;28.60;1.00;;;;;;5054230;28;20492;-61
2022/08/11 11:36:52;;;;;;;12.37;11.87;;;28.70;1.00;;;;;;5053764;28;20772;-61
2022/08/11 11:39:30;;;;;;;11.77;11.30;;;28.60;1.00;;;;;;5050231;28;20495;-61
2022/08/11 11:42:02;;;;;;;11.60;11.20;;;28.60;1.00;;;;;;5053634;28;20413;-61
2022/08/11 11:44:28;;;;;;;12.53;11.80;;;28.70;1.00;;;;;;5053821;28;20422;-61
2022/08/11 11:46:54;;;;;;;11.70;11.20;;;28.80;1.00;;;;;;5054122;28;20886;-61
2022/08/11 11:49:24;;;;;;;11.47;11.07;;;28.80;1.00;;;;;;5053915;28;20433;-61
2022/08/11 11:51:51;;;;;;;11.77;11.20;;;28.80;1.00;;;;;;5053400;28;20418;-61
2022/08/11 11:54:21;;;;;;;12.00;11.50;;;28.70;1.00;;;;;;5054002;28;20417;-61
2022/08/11 11:56:47;;;;;;;11.90;11.30;;;28.70;1.00;;;;;;5053859;28;20414;-62
2022/08/11 12:01:59;;;;;;;12.80;12.20;;;28.50;1.00;;;;;;5055790;28;20477;-61
2022/08/11 12:04:26;;;;;;;11.73;11.33;;;28.50;1.00;;;;;;5052989;28;20418;-62
2022/08/11 12:08:08;;;;;;;11.90;11.30;;;28.40;1.00;;;;;;5053500;28;20406;-62
2022/08/11 12:09:39;;;;;;;11.70;11.27;;;28.40;1.00;;;;;;5071737;28;20422;-61
2022/08/11 12:14:55;;;;;;;11.37;10.87;;;28.50;1.00;;;;;;5028464;28;20424;-58
2022/08/11 12:17:21;;;;;;;11.90;11.30;;;28.60;1.00;;;;;;5057139;28;20951;-58
2022/08/11 12:19:48;;;;;;;11.27;10.87;;;28.50;1.00;;;;;;5056736;28;20461;-58
2022/08/11 12:27:44;;;;;;;11.30;10.90;;;28.80;1.00;;;;;;5075457;28;20440;-58
2022/08/11 12:30:10;;;;;;;12.13;11.40;;;28.90;1.00;;;;;;5057134;28;20417;-58
2022/08/11 12:32:37;;;;;;;11.63;11.13;;;28.80;1.00;;;;;;5057304;28;20188;-58
2022/08/11 12:35:05;;;;;;;11.73;11.33;;;28.80;1.00;;;;;;5056670;28;20421;-58
2022/08/11 12:37:43;;;;;;;11.93;11.50;;;28.90;1.00;;;;;;5057059;28;20514;-59
2022/08/11 12:45:47;;;;;;;12.13;11.63;;;29.00;1.00;;;;;;5075311;28;20404;-58
2022/08/11 12:54:04;;;;;;;12.20;11.60;;;29.00;1.00;;;;;;5075385;28;20750;-59
2022/08/11 13:04:59;;;;;;;11.10;10.70;;;28.60;1.00;;;;;;5071636;28;20416;-59
2022/08/11 13:07:26;;;;;;;12.17;11.20;;;28.60;1.00;;;;;;5056924;28;20505;-59
2022/08/11 13:09:53;;;;;;;11.57;11.07;;;28.50;1.00;;;;;;5056625;28;20781;-59
2022/08/11 13:15:12;;;;;;;11.17;10.67;;;28.60;1.00;;;;;;5074974;28;20815;-59
2022/08/11 13:17:38;;;;;;;11.70;11.20;;;28.60;1.00;;;;;;5056380;28;20962;-59
2022/08/11 13:20:06;;;;;;;11.77;11.27;;;28.70;1.00;;;;;;5056175;28;21160;-59
2022/08/11 13:22:31;;;;;;;11.20;10.80;;;28.80;1.00;;;;;;5056681;28;20421;-59
2022/08/11 13:24:58;;;;;;;11.83;11.13;;;29.00;1.00;;;;;;5055721;28;20490;-59
2022/08/11 13:27:24;;;;;;;10.70;10.30;;;28.80;1.00;;;;;;5056477;28;20181;-59
2022/08/11 13:31:09;;;;;;;12.20;11.73;;;28.70;1.00;;;;;;5056235;28;20426;-59
2022/08/11 13:32:40;;;;;;;11.20;10.83;;;28.60;1.00;;;;;;5074164;28;20457;-59
2022/08/11 13:35:07;;;;;;;11.20;10.70;;;28.80;1.00;;;;;;5056426;28;20787;-59
2022/08/11 13:37:34;;;;;;;12.13;11.53;;;28.70;1.00;;;;;;5056234;28;20422;-59
2022/08/11 13:40:01;;;;;;;11.00;10.50;;;28.60;1.00;;;;;;5055913;28;20965;-62
2022/08/11 13:42:27;;;;;;;11.47;10.97;;;28.50;1.00;;;;;;5056232;28;20502;-63
2022/08/11 13:44:55;;;;;;;12.70;12.20;;;28.50;1.00;;;;;;5056021;28;20410;-62
2022/08/11 13:47:23;;;;;;;11.77;11.23;;;28.60;1.00;;;;;;5056098;28;20421;-62
2022/08/11 13:49:50;;;;;;;11.93;11.43;;;28.80;1.00;;;;;;5056027;28;20421;-62
2022/08/11 13:52:16;;;;;;;11.50;11.10;;;28.80;1.00;;;;;;5056146;28;20436;-60
2022/08/11 13:54:45;;;;;;;11.77;11.27;;;28.90;1.00;;;;;;5053028;28;20506;-59
2022/08/11 13:57:14;;;;;;;11.70;11.20;;;28.90;1.00;;;;;;5036054;28;20419;-59
2022/08/11 13:59:41;;;;;;;12.57;12.07;;;28.90;1.00;;;;;;5048064;28;20466;-59
2022/08/11 14:02:15;;;;;;;11.47;11.07;;;28.90;1.00;;;;;;5055890;28;20534;-59
2022/08/11 14:05:00;;;;;;;11.27;10.77;;;28.90;1.00;;;;;;5055646;28;20421;-59
2022/08/11 14:07:35;;;;;;;10.77;10.37;;;28.80;1.00;;;;;;5055667;28;20510;-59
2022/08/11 14:10:03;;;;;;;10.83;10.43;;;28.70;1.00;;;;;;5055353;28;20550;-59
2022/08/11 14:15:20;;;;;;;11.13;10.73;;;28.60;1.00;;;;;;5073870;28;20964;-63
2022/08/11 14:18:08;;;;;;;11.17;10.70;;;28.50;1.00;;;;;;5055260;28;20501;-62
2022/08/11 14:23:30;;;;;;;11.90;11.30;;;28.80;1.00;;;;;;5073672;28;20462;-62
2022/08/11 14:28:41;;;;;;;11.57;11.00;;;28.90;1.00;;;;;;5073132;28;20440;-62
2022/08/11 14:31:08;;;;;;;11.27;10.73;;;28.90;1.00;;;;;;5055263;28;20426;-62
2022/08/11 14:33:35;;;;;;;11.40;10.90;;;28.90;1.00;;;;;;5055034;28;20425;-62
2022/08/11 14:36:04;;;;;;;11.03;10.37;;;28.90;1.00;;;;;;5054094;28;20429;-62
2022/08/11 14:38:33;;;;;;;10.40;10.00;;;28.80;1.00;;;;;;5055003;28;20798;-62
2022/08/11 14:49:14;;;;;;;12.90;10.53;;;28.70;1.00;;;;;;5073091;28;20479;-62
2022/08/11 14:51:41;;;;;;;11.40;10.80;;;28.70;1.00;;;;;;5054522;28;20421;-62
2022/08/11 14:56:53;;;;;;;11.07;10.47;;;28.70;1.00;;;;;;5073025;28;20462;-62
2022/08/11 14:59:20;;;;;;;10.00;9.70;;;28.70;1.00;;;;;;5072756;28;20453;-62
2022/08/11 15:04:30;;;;;;;10.10;9.60;;;28.80;1.00;;;;;;5072991;28;20773;-62
2022/08/11 15:06:57;;;;;;;10.03;9.63;;;28.80;1.00;;;;;;5054572;28;20414;-60
2022/08/11 15:09:23;;;;;;;10.60;10.10;;;28.80;1.00;;;;;;5054463;28;20572;-59
2022/08/11 15:12:07;;;;;;;10.10;9.60;;;28.70;1.00;;;;;;5054119;28;20504;-59
2022/08/11 15:17:18;;;;;;;9.80;9.40;;;28.70;1.00;;;;;;5072790;28;20444;-58
2022/08/11 15:25:14;;;;;;;9.40;9.10;;;28.70;1.00;;;;;;5072839;28;20842;-59
2022/08/11 15:39:21;;;;;;;9.50;9.10;;;28.70;1.00;;;;;;5072347;28;20522;-59
2022/08/11 15:47:47;;;;;;;9.20;8.40;;;28.60;1.00;;;;;;5075229;28;20800;-58
2022/08/11 15:50:16;;;;;;;8.33;7.93;;;28.50;1.00;;;;;;5058131;28;20432;-58
2022/08/11 15:52:55;;;;;;;11.40;10.70;;;28.60;1.00;;;;;;5058083;28;20421;-58
2022/08/11 15:55:23;;;;;;;8.00;7.73;;;28.60;1.00;;;;;;5058227;28;20432;-58
2022/08/11 16:06:11;;;;;;;9.30;8.70;;;28.60;1.00;;;;;;5075474;28;20486;-59
2022/08/11 16:08:39;;;;;;;9.00;8.50;;;28.60;1.00;;;;;;5057790;28;20426;-59
2022/08/11 16:11:07;;;;;;;9.23;8.83;;;28.60;1.00;;;;;;5074295;28;20425;-59
2022/08/11 16:16:16;;;;;;;9.17;8.83;;;28.50;1.00;;;;;;5075738;28;20939;-59
2022/08/11 16:18:50;;;;;;;9.33;8.93;;;28.50;1.00;;;;;;5057765;28;20496;-59
2022/08/11 16:21:18;;;;;;;9.70;9.20;;;28.60;1.00;;;;;;5057634;28;20503;-59
2022/08/11 16:23:47;;;;;;;8.90;8.60;;;28.50;1.00;;;;;;5057745;28;20433;-59
2022/08/11 16:26:18;;;;;;;8.67;8.17;;;28.50;1.00;;;;;;5057693;28;20897;-58
2022/08/11 16:28:45;;;;;;;10.10;9.70;;;28.50;1.00;;;;;;5057694;28;20555;-58
2022/08/11 16:31:12;;;;;;;10.13;9.60;;;28.50;1.00;;;;;;5057480;28;20414;-58
2022/08/11 16:33:41;;;;;;;10.00;9.40;;;28.50;1.00;;;;;;5057417;28;20508;-58
2022/08/11 16:38:55;;;;;;;9.87;9.47;;;28.50;1.00;;;;;;5075682;28;20502;-58
2022/08/11 16:46:58;;;;;;;10.30;9.70;;;28.50;1.00;;;;;;5071359;28;20788;-58
2022/08/11 16:49:41;;;;;;;10.00;9.60;;;28.40;1.00;;;;;;5057114;28;20483;-58
2022/08/11 16:52:10;;;;;;;10.10;9.23;;;28.40;1.00;;;;;;5053573;28;20942;-58
2022/08/11 16:54:38;;;;;;;9.27;8.87;;;28.40;1.00;;;;;;5070550;28;20417;-59
2022/08/11 17:00:03;;;;;;;10.33;9.83;;;28.40;1.00;;;;;;5074051;28;20498;-58
2022/08/11 17:13:51;;;;;;;10.03;9.53;;;28.20;1.00;;;;;;5074971;28;20421;-58
2022/08/11 17:16:33;;;;;;;16.50;15.40;;;28.20;1.00;;;;;;5056681;28;20420;-59
2022/08/11 17:19:01;;;;;;;10.48;9.98;;;28.10;1.00;;;;;;5055245;28;20522;-58
2022/08/11 17:21:34;;;;;;;9.03;8.73;;;28.10;1.00;;;;;;5056398;28;20167;-57
2022/08/11 17:24:06;;;;;;;20.93;19.03;;;28.10;1.00;;;;;;5056408;28;20552;-57
2022/08/11 17:26:57;;;;;;;10.57;10.03;;;28.10;1.00;;;;;;5074569;28;20812;-56
2022/08/11 17:29:35;;;;;;;10.80;10.30;;;28.10;1.00;;;;;;5056538;28;20430;-56
2022/08/11 17:37:36;;;;;;;9.83;9.43;;;28.00;1.00;;;;;;5074717;28;20482;-61
2022/08/11 17:40:06;;;;;;;10.87;10.37;;;28.00;1.00;;;;;;5055806;28;20454;-58
2022/08/11 17:50:54;;;;;;;11.07;10.57;;;27.90;1.00;;;;;;5074188;28;20556;-58
2022/08/11 18:01:38;;;;;;;10.50;10.00;;;27.90;1.00;;;;;;5073909;28;20466;-59
2022/08/11 18:04:08;;;;;;;11.37;10.37;;;27.90;1.00;;;;;;5054603;28;20420;-59
2022/08/11 18:06:36;;;;;;;10.60;10.10;;;27.90;1.00;;;;;;5051535;28;20448;-60
